Time;durP1;ratioP1;P1;durP2;ratioP2;P2;SDS_P1;SDS_P2;PMS_P1;PMS_P2;Temp;Humidity;BMP_temperature;BMP_pressure;BME280_temperature;BME280_humidity;BME280_pressure;Samples;Min_cycle;Max_cycle;Signal;HPM_P1;HPM_P2
2022/08/12 00:44:42;;;;;;;9.70;5.00;;;;;;;20.18;57.17;92713.44;5052194;28;20102;-74
2022/08/12 00:47:10;;;;;;;8.43;4.90;;;;;;;20.20;56.89;92710.41;5018072;28;20065;-75
2022/08/12 00:49:38;;;;;;;8.68;4.47;;;;;;;20.31;55.45;92706.94;5052208;28;20025;-74
2022/08/12 00:52:05;;;;;;;12.25;4.35;;;;;;;20.34;54.44;92710.78;5051904;28;20033;-75
2022/08/12 00:54:51;;;;;;;7.10;4.22;;;;;;;20.41;54.56;92708.31;5051271;28;20139;-74
2022/08/12 00:57:23;;;;;;;10.48;4.43;;;;;;;20.44;53.45;92712.94;5033860;28;20139;-74
2022/08/12 00:59:55;;;;;;;11.48;4.55;;;;;;;20.47;53.38;92712.28;5034023;28;20044;-74
2022/08/12 01:02:25;;;;;;;12.40;4.22;;;;;;;20.49;53.32;92718.03;5034083;28;20029;-74
2022/08/12 01:13:21;;;;;;;8.13;3.85;;;;;;;20.39;49.99;92702.56;5027358;28;20060;-74
2022/08/12 01:15:49;;;;;;;10.88;4.05;;;;;;;20.47;49.82;92714.94;5031498;28;20444;-73
2022/08/12 01:18:19;;;;;;;6.93;3.20;;;;;;;20.47;48.53;92698.22;5031712;28;20450;-74
2022/08/12 01:20:50;;;;;;;6.90;3.30;;;;;;;20.34;49.66;92708.13;5016905;28;20060;-75
2022/08/12 01:23:35;;;;;;;6.50;3.35;;;;;;;20.33;48.45;92703.91;5051398;28;20654;-74
2022/08/12 01:26:06;;;;;;;4.88;3.33;;;;;;;20.40;48.51;92709.44;5029783;28;20091;-74
2022/08/12 01:28:33;;;;;;;6.18;3.15;;;;;;;20.23;48.72;92704.44;4997502;28;20613;-74
2022/08/12 01:31:04;;;;;;;11.50;3.20;;;;;;;20.16;49.44;92703.13;5013900;28;20113;-74
2022/08/12 01:33:45;;;;;;;5.68;3.15;;;;;;;20.12;51.15;92704.91;5050060;28;20041;-75
2022/08/12 01:36:16;;;;;;;5.80;3.67;;;;;;;20.07;53.21;92705.16;5033367;28;20037;-74
2022/08/12 01:38:46;;;;;;;10.83;3.80;;;;;;;20.03;53.14;92704.28;5051281;28;20029;-74
2022/08/12 01:41:16;;;;;;;8.15;3.20;;;;;;;20.01;54.34;92703.84;5016860;28;20505;-74
2022/08/12 01:43:43;;;;;;;7.88;3.60;;;;;;;19.96;53.92;92696.13;5050910;28;20021;-75
2022/08/12 01:46:24;;;;;;;6.00;3.25;;;;;;;19.92;53.85;92695.25;5050869;28;20028;-75
2022/08/12 01:49:27;;;;;;;12.52;4.03;;;;;;;20.03;54.33;92693.66;5051039;28;20037;-74
2022/08/12 01:52:03;;;;;;;7.38;3.70;;;;;;;20.02;49.57;92692.13;5032438;28;20086;-74
2022/08/12 01:54:43;;;;;;;7.07;3.28;;;;;;;19.95;52.80;92681.31;5050821;28;20049;-75
2022/08/12 01:57:43;;;;;;;9.13;3.35;;;;;;;19.99;49.30;92671.53;5050728;28;20186;-74
2022/08/12 02:00:17;;;;;;;8.68;4.03;;;;;;;19.89;51.22;92664.09;5032952;28;20565;-74
2022/08/12 02:03:12;;;;;;;6.15;3.20;;;;;;;19.81;52.70;92657.03;5050409;28;20490;-74
2022/08/12 02:11:23;;;;;;;6.75;3.53;;;;;;;19.65;51.67;92664.91;5050666;28;20067;-74
2022/08/12 02:14:09;;;;;;;5.90;3.33;;;;;;;19.58;50.67;92665.50;5050133;28;20037;-74
2022/08/12 02:16:41;;;;;;;6.88;3.20;;;;;;;19.61;49.88;92659.53;5050931;28;20037;-74
2022/08/12 02:19:26;;;;;;;6.60;3.00;;;;;;;19.53;51.23;92658.53;5050887;28;20032;-74
2022/08/12 02:22:30;;;;;;;7.00;2.97;;;;;;;19.46;51.53;92660.22;5031098;28;20488;-73
2022/08/12 02:25:03;;;;;;;8.00;3.30;;;;;;;19.38;51.20;92653.94;5014685;28;20163;-74
2022/08/12 02:27:36;;;;;;;5.35;2.80;;;;;;;19.32;52.20;92653.41;5031381;28;20038;-74
2022/08/12 02:30:03;;;;;;;5.35;2.97;;;;;;;19.31;50.19;92651.84;5030318;28;20061;-74
2022/08/12 02:32:40;;;;;;;7.82;2.85;;;;;;;19.27;50.05;92653.66;5030579;28;20025;-74
2022/08/12 02:35:16;;;;;;;8.07;3.05;;;;;;;19.24;52.12;92651.66;5045690;28;20072;-74
2022/08/12 02:37:42;;;;;;;6.68;3.08;;;;;;;19.16;53.35;92649.91;5054567;28;20037;-73
2022/08/12 02:40:11;;;;;;;6.03;2.85;;;;;;;19.10;53.68;92651.25;5054810;28;20039;-74
2022/08/12 02:42:41;;;;;;;5.15;2.60;;;;;;;19.06;53.23;92639.75;5036682;28;20036;-74
2022/08/12 02:45:07;;;;;;;6.35;2.90;;;;;;;19.02;53.62;92644.94;5052360;28;20041;-74
2022/08/12 02:47:39;;;;;;;9.45;2.83;;;;;;;18.99;53.61;92644.88;5054436;28;20033;-74
2022/08/12 02:50:06;;;;;;;7.03;2.57;;;;;;;18.97;53.50;92641.78;5036596;28;20037;-74
2022/08/12 02:52:33;;;;;;;4.90;2.70;;;;;;;18.93;53.92;92641.66;5036324;28;20507;-74
2022/08/12 02:55:17;;;;;;;5.80;2.85;;;;;;;18.88;54.49;92639.22;5054140;28;20437;-74
2022/08/12 02:57:45;;;;;;;6.40;2.85;;;;;;;18.83;54.75;92634.94;5054627;28;20509;-74
2022/08/12 03:00:12;;;;;;;9.50;2.78;;;;;;;18.78;55.71;92629.06;5055116;28;20021;-74
2022/08/12 03:02:42;;;;;;;6.80;3.15;;;;;;;18.74;55.81;92623.66;5036283;28;20495;-74
2022/08/12 03:05:10;;;;;;;6.38;3.25;;;;;;;18.69;55.83;92622.00;5054073;28;20036;-74
2022/08/12 03:07:48;;;;;;;7.57;3.00;;;;;;;18.65;56.34;92615.03;5053982;28;20029;-74
2022/08/12 03:10:17;;;;;;;11.02;2.88;;;;;;;18.61;56.59;92608.84;5054020;28;20041;-74
2022/08/12 03:12:45;;;;;;;7.03;2.95;;;;;;;18.59;56.41;92605.75;5053935;28;20048;-74
2022/08/12 03:15:16;;;;;;;7.75;2.70;;;;;;;18.56;56.25;92601.91;5035729;28;20041;-74
2022/08/12 03:18:06;;;;;;;4.60;2.60;;;;;;;18.52;56.11;92601.00;5033026;28;20037;-74
2022/08/12 03:20:41;;;;;;;5.47;3.03;;;;;;;18.49;56.34;92602.44;5033997;28;20035;-74
2022/08/12 03:23:13;;;;;;;5.80;2.70;;;;;;;18.44;56.52;92600.03;5032441;28;20034;-74
2022/08/12 03:25:42;;;;;;;7.07;2.93;;;;;;;18.40;56.57;92596.50;5015815;28;20052;-75
2022/08/12 03:28:11;;;;;;;8.70;2.88;;;;;;;18.38;56.14;92596.03;5016479;28;20669;-75
2022/08/12 03:30:41;;;;;;;4.88;2.60;;;;;;;18.32;56.01;92586.75;5048900;28;20040;-74
2022/08/12 03:33:10;;;;;;;6.95;2.60;;;;;;;18.25;56.34;92587.31;5015675;28;20446;-74
2022/08/12 03:35:41;;;;;;;10.90;2.80;;;;;;;18.19;56.54;92582.56;5033029;28;20491;-74
2022/08/12 03:38:10;;;;;;;4.95;2.28;;;;;;;18.10;56.05;92575.50;5041319;28;20502;-74
2022/08/12 04:00:35;;;;;;;8.07;2.50;;;;;;;17.63;55.91;92557.31;5017587;28;20045;-74
2022/08/12 04:03:01;;;;;;;5.93;2.50;;;;;;;17.60;55.54;92563.25;5032798;28;20030;-73
2022/08/12 04:05:29;;;;;;;7.20;2.60;;;;;;;17.58;55.54;92560.16;5005382;28;20043;-74
2022/08/12 04:07:57;;;;;;;6.03;2.35;;;;;;;17.55;55.84;92558.16;5052884;28;20029;-74
2022/08/12 04:13:13;;;;;;;4.55;2.65;;;;;;;17.50;56.29;92554.97;5031602;28;20044;-74
2022/08/12 04:13:17;;;;;;;7.47;2.75;;;;;;;17.45;56.25;92550.63;5032584;28;20045;-74
2022/08/12 04:15:44;;;;;;;5.78;2.88;;;;;;;17.38;56.45;92542.47;5033005;28;20057;-74
2022/08/12 04:18:14;;;;;;;5.30;2.50;;;;;;;17.35;56.66;92543.13;5032606;28;20025;-74
2022/08/12 04:20:41;;;;;;;5.53;2.80;;;;;;;17.31;57.06;92544.88;5048615;28;20110;-74
2022/08/12 04:23:11;;;;;;;6.15;2.70;;;;;;;17.26;57.26;92538.69;5052470;28;20039;-74
2022/08/12 04:25:39;;;;;;;6.30;2.65;;;;;;;17.25;57.65;92545.06;5052530;28;20499;-74
2022/08/12 04:28:08;;;;;;;5.65;2.72;;;;;;;17.25;57.63;92541.66;5038701;28;20048;-74
2022/08/12 04:30:34;;;;;;;8.80;2.75;;;;;;;17.22;57.50;92540.41;5043261;28;20498;-74
2022/08/12 04:33:01;;;;;;;6.22;2.50;;;;;;;17.22;57.51;92544.94;5034517;28;20113;-74
2022/08/12 04:35:27;;;;;;;6.10;2.70;;;;;;;17.20;57.50;92540.00;5052430;28;20402;-74
2022/08/12 04:37:55;;;;;;;6.13;2.50;;;;;;;17.19;57.72;92541.09;5052383;28;20043;-74
2022/08/12 04:40:25;;;;;;;5.25;2.50;;;;;;;17.19;57.23;92546.38;5049799;28;20083;-74
2022/08/12 04:42:51;;;;;;;5.43;2.65;;;;;;;17.20;57.51;92547.13;5052279;28;20116;-74
2022/08/12 04:45:18;;;;;;;7.30;2.60;;;;;;;17.23;57.75;92549.16;5052103;28;20128;-74
2022/08/12 04:47:43;;;;;;;11.38;3.00;;;;;;;17.24;58.20;92545.41;5052133;28;20368;-74
2022/08/12 04:50:13;;;;;;;6.00;2.33;;;;;;;17.27;58.33;92545.53;5051791;28;20047;-74
2022/08/12 04:52:40;;;;;;;7.25;2.58;;;;;;;17.31;58.25;92547.50;5051581;28;20041;-74
2022/08/12 04:55:08;;;;;;;9.35;2.80;;;;;;;17.38;58.30;92537.16;5051746;28;20051;-74
2022/08/12 04:57:33;;;;;;;5.55;2.55;;;;;;;17.43;58.34;92537.75;5051043;28;20029;-73
2022/08/12 05:00:00;;;;;;;6.45;2.40;;;;;;;17.48;58.46;92526.94;5048353;28;20040;-74
2022/08/12 05:02:25;;;;;;;6.95;2.63;;;;;;;17.53;59.19;92527.84;5042225;28;20139;-74
2022/08/12 05:04:56;;;;;;;5.35;2.70;;;;;;;17.57;58.62;92531.38;5050584;28;20505;-73
2022/08/12 05:07:22;;;;;;;6.40;2.70;;;;;;;17.64;58.61;92531.63;5033688;28;20457;-73
2022/08/12 05:09:48;;;;;;;4.22;2.40;;;;;;;17.73;58.60;92526.22;5051809;28;20029;-74
2022/08/12 05:12:18;;;;;;;6.97;2.42;;;;;;;17.85;59.19;92531.56;5051093;28;20033;-74
2022/08/12 05:14:44;;;;;;;9.18;2.78;;;;;;;17.96;58.97;92532.66;5049330;28;20484;-73
2022/08/12 05:17:10;;;;;;;8.02;2.70;;;;;;;18.05;58.82;92538.63;5041556;28;20471;-73
2022/08/12 05:19:36;;;;;;;7.18;2.72;;;;;;;18.16;58.53;92536.31;5031509;28;20079;-74
2022/08/12 05:22:02;;;;;;;4.75;2.60;;;;;;;18.27;57.27;92541.94;5032248;28;20037;-74
2022/08/12 05:24:28;;;;;;;7.75;2.58;;;;;;;18.34;56.48;92539.50;5037786;28;20036;-74
2022/08/12 05:26:53;;;;;;;6.18;3.33;;;;;;;18.50;56.10;92539.59;5050827;28;20074;-74
2022/08/12 05:29:19;;;;;;;5.93;2.60;;;;;;;18.60;55.79;92538.38;5050665;28;20037;-74
2022/08/12 05:31:45;;;;;;;5.70;2.50;;;;;;;18.69;56.52;92536.38;5046614;28;20068;-74
2022/08/12 05:34:13;;;;;;;6.15;2.70;;;;;;;18.77;56.82;92537.34;5032047;28;20049;-74
2022/08/12 05:36:42;;;;;;;6.05;2.60;;;;;;;18.86;57.15;92543.31;5031078;28;20095;-74
2022/08/12 05:39:07;;;;;;;9.05;2.50;;;;;;;18.96;57.13;92542.88;5051078;28;20524;-74
2022/08/12 05:41:35;;;;;;;5.45;2.67;;;;;;;19.08;57.33;92542.03;5050995;28;20120;-75
2022/08/12 05:44:04;;;;;;;6.80;2.90;;;;;;;19.21;57.76;92546.19;5025214;28;20148;-74
2022/08/12 05:46:31;;;;;;;6.20;2.75;;;;;;;19.32;57.25;92552.56;5036508;28;20041;-74
2022/08/12 05:48:59;;;;;;;4.72;2.50;;;;;;;19.42;57.40;92543.34;5015814;28;20131;-74
2022/08/12 05:51:30;;;;;;;10.23;2.70;;;;;;;19.51;57.24;92537.88;5040417;28;20064;-75
2022/08/12 05:53:57;;;;;;;6.32;2.40;;;;;;;19.61;57.18;92537.38;5049348;28;20121;-75
2022/08/12 05:56:42;;;;;;;8.35;2.60;;;;;;;19.71;56.80;92542.22;5032323;28;20033;-75
2022/08/12 05:59:09;;;;;;;13.77;2.67;;;;;;;19.86;56.59;92547.88;5019598;28;20035;-75
2022/08/12 06:01:36;;;;;;;6.55;2.63;;;;;;;20.00;56.11;92542.16;5051935;28;20061;-76
2022/08/12 06:04:02;;;;;;;5.32;2.55;;;;;;;20.12;55.49;92544.72;5051984;28;20528;-76
2022/08/12 06:06:27;;;;;;;4.15;2.47;;;;;;;20.24;55.63;92541.97;5036158;28;20037;-77
2022/08/12 06:08:54;;;;;;;4.28;2.42;;;;;;;20.43;54.95;92548.47;5051469;28;20033;-76
2022/08/12 06:11:21;;;;;;;5.10;2.83;;;;;;;20.58;53.49;92553.78;5017423;28;20112;-76
2022/08/12 06:13:47;;;;;;;6.57;2.53;;;;;;;20.91;54.44;92557.88;5051828;28;20035;-76
2022/08/12 06:16:14;;;;;;;5.00;2.70;;;;;;;21.55;52.46;92552.31;5052116;28;20037;-77
2022/08/12 06:18:41;;;;;;;4.68;2.60;;;;;;;22.03;51.55;92555.44;5051191;28;20025;-76
2022/08/12 06:21:14;;;;;;;9.68;2.70;;;;;;;22.86;50.28;92558.22;5033474;28;20045;-75
2022/08/12 06:23:41;;;;;;;5.93;2.58;;;;;;;23.70;49.44;92556.19;5050728;28;20033;-76
2022/08/12 06:26:10;;;;;;;7.57;2.60;;;;;;;24.51;46.60;92554.66;5050665;28;20064;-76
2022/08/12 06:28:39;;;;;;;6.22;2.63;;;;;;;25.07;45.66;92555.38;5050697;28;20041;-76
2022/08/12 06:31:06;;;;;;;13.02;2.55;;;;;;;25.61;43.70;92558.31;5051356;28;20539;-76
2022/08/12 06:33:33;;;;;;;7.97;2.83;;;;;;;25.93;43.54;92552.28;5050630;28;20037;-76
2022/08/12 06:36:00;;;;;;;6.75;2.70;;;;;;;25.94;43.01;92559.97;5051108;28;20087;-76
2022/08/12 06:38:29;;;;;;;6.65;2.70;;;;;;;25.65;44.62;92556.41;5032827;28;20135;-75
2022/08/12 06:43:43;;;;;;;5.43;2.70;;;;;;;25.92;41.92;92551.53;5032988;28;20083;-76
2022/08/12 06:46:10;;;;;;;10.55;3.10;;;;;;;26.03;41.78;92550.75;5033182;28;20453;-76
2022/08/12 06:48:36;;;;;;;8.15;2.60;;;;;;;25.92;42.10;92548.84;5050920;28;20033;-76
2022/08/12 06:51:02;;;;;;;8.27;3.03;;;;;;;26.02;41.86;92549.25;5050449;28;20040;-75
2022/08/12 06:53:31;;;;;;;10.50;3.10;;;;;;;25.93;42.73;92549.59;5015882;28;20037;-75
2022/08/12 06:55:59;;;;;;;6.53;3.10;;;;;;;25.63;42.87;92545.31;5032871;28;20552;-77
2022/08/12 06:58:29;;;;;;;9.13;3.03;;;;;;;25.40;43.14;92540.25;5016752;28;20071;-75
2022/08/12 07:00:57;;;;;;;5.60;2.97;;;;;;;24.76;43.97;92542.59;5032750;28;20388;-75
2022/08/12 07:03:27;;;;;;;7.30;2.95;;;;;;;24.78;44.21;92541.06;5050567;28;20044;-77
2022/08/12 07:06:03;;;;;;;5.57;2.80;;;;;;;23.89;46.61;92554.53;5016697;28;20099;-75
2022/08/12 07:08:31;;;;;;;9.45;2.80;;;;;;;23.82;46.68;92557.88;5050312;28;20049;-74
2022/08/12 07:11:00;;;;;;;8.18;3.30;;;;;;;23.82;47.09;92555.22;5032450;28;20037;-75
2022/08/12 07:13:25;;;;;;;6.30;3.38;;;;;;;23.74;44.72;92553.56;5050264;28;20487;-76
2022/08/12 07:15:54;;;;;;;8.95;3.20;;;;;;;23.52;46.93;92555.25;5032328;28;20033;-76
2022/08/12 07:18:20;;;;;;;4.90;3.13;;;;;;;23.72;46.98;92553.16;5050250;28;20071;-75
2022/08/12 07:20:47;;;;;;;5.70;2.70;;;;;;;23.53;47.33;92550.66;5014666;28;20491;-75
2022/08/12 07:23:14;;;;;;;8.85;3.00;;;;;;;23.44;47.81;92554.41;5016362;28;20037;-74
2022/08/12 07:25:41;;;;;;;7.50;2.92;;;;;;;23.42;47.91;92551.31;5016535;28;20067;-75
2022/08/12 07:28:22;;;;;;;6.70;3.20;;;;;;;23.43;48.44;92552.84;5039846;28;20018;-75
2022/08/12 07:30:49;;;;;;;7.38;3.08;;;;;;;23.60;47.42;92553.44;5047537;28;20060;-76
2022/08/12 07:33:17;;;;;;;7.07;3.30;;;;;;;23.30;47.47;92554.22;5053026;28;20076;-75
2022/08/12 07:35:46;;;;;;;7.28;3.20;;;;;;;23.49;48.07;92559.41;5051673;28;20033;-75
2022/08/12 07:38:24;;;;;;;7.15;3.15;;;;;;;23.38;48.61;92557.75;5052617;28;20056;-75
2022/08/12 07:40:53;;;;;;;11.55;3.40;;;;;;;23.42;47.18;92554.00;5052374;28;20072;-75
2022/08/12 07:43:18;;;;;;;6.00;3.08;;;;;;;23.34;48.57;92555.03;5053345;28;20017;-75
2022/08/12 07:45:44;;;;;;;9.65;3.42;;;;;;;22.66;50.33;92556.81;5018666;28;20390;-75
2022/08/12 07:48:10;;;;;;;4.82;3.03;;;;;;;22.85;52.36;92558.59;5053485;28;20041;-74
2022/08/12 07:50:36;;;;;;;9.98;3.28;;;;;;;22.74;51.70;92563.00;5053348;28;20093;-74
2022/08/12 07:53:02;;;;;;;6.10;2.90;;;;;;;22.66;53.18;92554.91;5035352;28;20037;-75
2022/08/12 07:55:28;;;;;;;7.88;2.97;;;;;;;22.70;52.55;92556.84;5033185;28;20049;-75
2022/08/12 07:57:58;;;;;;;7.53;3.13;;;;;;;22.96;51.25;92562.16;5015692;28;20037;-75
2022/08/12 08:00:29;;;;;;;5.07;3.28;;;;;;;23.24;51.10;92561.03;5048741;28;20523;-75
2022/08/12 08:02:54;;;;;;;5.00;3.05;;;;;;;23.34;49.84;92559.63;5053171;28;20048;-75
2022/08/12 08:05:22;;;;;;;8.20;3.45;;;;;;;23.04;49.78;92563.84;5034985;28;20056;-75
2022/08/12 08:07:48;;;;;;;6.05;3.03;;;;;;;23.18;49.90;92562.47;5051551;28;20392;-75
2022/08/12 08:10:15;;;;;;;10.73;3.50;;;;;;;23.03;50.57;92564.19;5053200;28;20037;-75
2022/08/12 08:12:53;;;;;;;6.00;2.85;;;;;;;23.05;49.03;92570.69;5052103;28;20033;-75
2022/08/12 08:15:21;;;;;;;8.23;3.13;;;;;;;23.04;49.81;92561.16;5017453;28;20498;-75
2022/08/12 08:18:02;;;;;;;4.90;2.80;;;;;;;23.18;50.81;92568.59;5033728;28;20474;-75
2022/08/12 08:20:32;;;;;;;6.50;3.22;;;;;;;22.99;50.97;92566.84;5034764;28;20482;-75
2022/08/12 08:23:04;;;;;;;7.72;3.50;;;;;;;22.71;51.36;92566.41;5034779;28;20170;-75
2022/08/12 08:25:31;;;;;;;5.40;3.20;;;;;;;22.65;50.34;92572.06;5052419;28;20402;-75
2022/08/12 08:27:58;;;;;;;6.10;2.72;;;;;;;22.60;48.53;92575.00;5016230;28;20061;-75
2022/08/12 08:30:25;;;;;;;6.63;2.90;;;;;;;22.84;50.57;92575.75;5032403;28;20025;-75
2022/08/12 08:32:51;;;;;;;6.32;2.88;;;;;;;22.87;48.45;92575.00;5035524;28;20021;-75
2022/08/12 08:35:21;;;;;;;5.93;2.50;;;;;;;23.19;44.50;92572.03;5051113;28;20052;-75
2022/08/12 08:37:48;;;;;;;9.18;2.90;;;;;;;23.38;42.75;92581.81;5052065;28;20040;-75
2022/08/12 08:42:58;;;;;;;6.53;2.60;;;;;;;23.60;43.87;92583.59;5044918;28;20036;-75
2022/08/12 08:45:24;;;;;;;4.55;2.70;;;;;;;23.51;49.24;92584.97;5031948;28;20041;-75
2022/08/12 08:47:50;;;;;;;7.50;3.00;;;;;;;23.11;47.97;92589.09;5017063;28;20029;-75
2022/08/12 08:50:16;;;;;;;6.88;2.85;;;;;;;23.30;47.53;92586.28;5016657;28;20575;-75
2022/08/12 08:52:43;;;;;;;6.88;2.58;;;;;;;23.54;48.41;92584.28;5038504;28;20075;-75
2022/08/12 08:55:12;;;;;;;5.70;2.88;;;;;;;23.77;48.43;92579.56;5014479;28;20530;-75
2022/08/12 08:57:39;;;;;;;14.20;3.25;;;;;;;23.76;42.63;92580.72;5025943;28;20036;-75
2022/08/12 09:00:06;;;;;;;5.05;2.63;;;;;;;23.84;42.60;92579.66;5033862;28;20510;-75
2022/08/12 09:02:31;;;;;;;7.22;3.00;;;;;;;23.67;46.18;92580.22;5051506;28;20033;-74
2022/08/12 09:04:57;;;;;;;9.60;2.90;;;;;;;23.44;47.83;92585.66;5025241;28;20033;-75
2022/08/12 09:07:22;;;;;;;6.40;2.92;;;;;;;22.98;46.47;92589.28;5015030;28;20492;-74
2022/08/12 09:09:50;;;;;;;8.38;2.95;;;;;;;23.37;46.54;92589.06;5033829;28;20047;-75
2022/08/12 09:15:00;;;;;;;4.70;2.78;;;;;;;23.86;47.39;92588.06;5016240;28;20045;-74
2022/08/12 09:17:26;;;;;;;6.13;2.80;;;;;;;24.01;46.75;92582.88;5024045;28;20070;-75
2022/08/12 09:19:51;;;;;;;5.20;2.75;;;;;;;23.83;44.28;92574.69;5015766;28;20044;-74
2022/08/12 09:22:17;;;;;;;7.03;3.15;;;;;;;24.11;44.94;92582.19;5015801;28;20029;-75
2022/08/12 09:24:42;;;;;;;6.60;2.60;;;;;;;24.42;44.29;92580.94;5016342;28;20086;-76
2022/08/12 09:27:15;;;;;;;7.03;2.85;;;;;;;24.53;42.00;92581.06;5033495;28;20086;-79
2022/08/12 09:29:40;;;;;;;6.57;2.50;;;;;;;24.72;40.74;92583.50;5015193;28;20041;-80
2022/08/12 09:32:08;;;;;;;6.40;2.75;;;;;;;24.56;41.10;92580.31;5013705;28;20411;-74
2022/08/12 09:34:35;;;;;;;5.72;2.53;;;;;;;24.30;41.84;92576.66;5051516;28;20151;-73
2022/08/12 09:37:01;;;;;;;6.43;2.72;;;;;;;24.35;41.30;92572.09;5051470;28;20037;-72
2022/08/12 09:39:30;;;;;;;5.15;2.63;;;;;;;24.45;43.08;92571.41;5050236;28;20043;-73
2022/08/12 09:47:27;;;;;;;4.53;2.80;;;;;;;24.98;41.52;92564.91;5028032;28;20469;-73
2022/08/12 09:49:53;;;;;;;7.50;2.90;;;;;;;25.20;38.46;92558.53;5022207;28;20041;-74
2022/08/12 09:52:19;;;;;;;9.50;3.08;;;;;;;25.52;40.16;92557.91;5019862;28;20498;-73
2022/08/12 09:54:45;;;;;;;5.82;2.97;;;;;;;25.77;40.11;92560.66;5027722;28;20054;-74
2022/08/12 09:57:17;;;;;;;6.28;3.00;;;;;;;25.72;40.17;92559.09;5027468;28;20065;-73
2022/08/12 09:59:43;;;;;;;5.78;2.80;;;;;;;25.92;39.05;92562.25;5012023;28;20080;-73
2022/08/12 10:02:11;;;;;;;6.72;2.42;;;;;;;25.64;40.14;92556.78;5023745;28;20474;-74
2022/08/12 10:04:47;;;;;;;4.15;2.47;;;;;;;25.84;39.00;92557.22;5031148;28;20111;-74
2022/08/12 10:07:14;;;;;;;3.95;2.20;;;;;;;25.64;38.76;92562.16;5031097;28;20565;-73
2022/08/12 10:09:40;;;;;;;5.50;2.38;;;;;;;24.66;39.53;92560.13;5029903;28;20037;-73
2022/08/12 10:14:50;;;;;;;5.18;2.40;;;;;;;24.69;42.30;92557.47;5029525;28;20055;-73
2022/08/12 10:17:21;;;;;;;6.00;2.40;;;;;;;24.12;40.39;92548.22;5029766;28;20068;-72
2022/08/12 10:19:47;;;;;;;5.55;2.53;;;;;;;23.72;41.18;92555.84;5031034;28;20159;-72
2022/08/12 10:22:14;;;;;;;6.03;2.50;;;;;;;23.58;41.40;92555.69;5030937;28;20037;-73
2022/08/12 10:24:40;;;;;;;5.28;2.30;;;;;;;23.58;40.98;92558.38;5031216;28;20033;-73
2022/08/12 10:29:51;;;;;;;6.50;2.55;;;;;;;24.14;41.49;92536.03;5020432;28;20062;-75
2022/08/12 10:32:20;;;;;;;5.60;2.58;;;;;;;24.46;43.10;92549.63;5030756;28;20037;-73
2022/08/12 10:34:52;;;;;;;6.55;2.70;;;;;;;25.00;41.04;92541.97;5030822;28;20064;-73
2022/08/12 10:37:19;;;;;;;6.53;2.85;;;;;;;25.68;41.00;92536.88;5029379;28;20033;-73
2022/08/12 10:39:45;;;;;;;7.85;2.50;;;;;;;25.49;39.31;92538.00;5029930;28;20116;-73
2022/08/12 10:45:00;;;;;;;5.72;2.28;;;;;;;24.40;41.08;92536.97;5029309;28;20041;-73
2022/08/12 10:47:31;;;;;;;6.10;3.03;;;;;;;24.38;40.92;92539.25;5030615;28;20044;-73
2022/08/12 10:49:58;;;;;;;3.90;2.40;;;;;;;24.60;41.32;92530.25;5029341;28;20111;-73
2022/08/12 10:52:29;;;;;;;4.80;2.38;;;;;;;24.37;40.67;92538.50;5030601;28;20083;-75
2022/08/12 10:54:55;;;;;;;5.18;2.50;;;;;;;23.65;41.79;92545.09;5040857;28;20426;-75
2022/08/12 10:57:23;;;;;;;6.82;2.50;;;;;;;23.39;42.58;92536.00;5020069;28;20125;-74
2022/08/12 10:59:49;;;;;;;5.63;2.63;;;;;;;23.22;42.52;92536.59;5036387;28;20048;-75
2022/08/12 11:02:15;;;;;;;5.57;2.60;;;;;;;23.74;43.59;92534.09;5053189;28;20029;-74
2022/08/12 11:04:41;;;;;;;7.78;2.75;;;;;;;23.87;41.91;92528.16;5054328;28;20514;-75
2022/08/12 11:07:08;;;;;;;3.03;2.08;;;;;;;23.83;42.18;92521.22;5036247;28;20060;-75
2022/08/12 11:09:34;;;;;;;8.13;2.40;;;;;;;23.79;41.96;92515.84;5035525;28;20037;-74
2022/08/12 11:12:05;;;;;;;7.65;2.80;;;;;;;24.24;42.86;92527.31;5038139;28;20029;-75
2022/08/12 11:14:35;;;;;;;4.60;2.60;;;;;;;24.16;42.53;92530.28;5054510;28;20197;-75
2022/08/12 11:17:07;;;;;;;8.45;2.88;;;;;;;24.09;41.17;92522.97;5052629;28;20033;-75
2022/08/12 11:19:35;;;;;;;4.65;2.30;;;;;;;24.08;40.90;92532.16;5036321;28;20033;-75
2022/08/12 11:22:02;;;;;;;5.20;2.90;;;;;;;24.20;41.94;92534.53;5041052;28;20052;-75
2022/08/12 11:24:28;;;;;;;4.22;2.55;;;;;;;24.42;41.48;92508.72;5042041;28;20033;-75
2022/08/12 11:26:54;;;;;;;5.25;2.60;;;;;;;24.33;42.58;92505.59;5045675;28;20064;-75
2022/08/12 11:29:23;;;;;;;4.20;2.40;;;;;;;24.29;42.30;92508.22;5033956;28;20090;-75
2022/08/12 11:31:49;;;;;;;6.13;2.70;;;;;;;24.66;41.12;92504.69;5047493;28;20118;-75
2022/08/12 11:34:16;;;;;;;4.82;2.72;;;;;;;24.20;41.42;92507.78;5019567;28;20040;-75
2022/08/12 11:36:55;;;;;;;5.15;2.40;;;;;;;24.38;41.94;92496.44;5035897;28;20395;-75
2022/08/12 11:39:22;;;;;;;4.00;2.55;;;;;;;24.24;42.39;92502.47;5047925;28;20064;-75
2022/08/12 11:41:48;;;;;;;5.60;2.70;;;;;;;24.61;42.64;92490.88;5036063;28;20032;-75
2022/08/12 11:44:14;;;;;;;3.70;2.45;;;;;;;24.48;40.62;92495.78;5051103;28;20044;-75
2022/08/12 11:46:42;;;;;;;4.28;2.20;;;;;;;24.61;41.50;92499.69;5033618;28;20065;-75
2022/08/12 11:49:08;;;;;;;4.25;2.40;;;;;;;24.45;41.73;92499.16;5035606;28;20032;-75
2022/08/12 11:51:36;;;;;;;5.30;2.78;;;;;;;24.31;42.84;92489.13;5019305;28;20047;-76
2022/08/12 11:54:04;;;;;;;6.32;2.55;;;;;;;24.44;42.67;92497.66;5013897;28;20049;-76
2022/08/12 11:56:30;;;;;;;4.93;2.60;;;;;;;24.29;41.41;92486.84;4999508;28;20033;-76
2022/08/12 11:58:56;;;;;;;4.90;2.20;;;;;;;24.49;42.45;92492.72;5033560;28;20036;-76
2022/08/12 12:01:22;;;;;;;6.63;2.92;;;;;;;24.36;41.83;92494.13;5048039;28;20033;-75
2022/08/12 12:03:48;;;;;;;4.88;2.60;;;;;;;24.34;40.76;92492.97;5014069;28;20188;-75
2022/08/12 12:06:14;;;;;;;5.30;2.72;;;;;;;24.39;41.96;92477.34;5032778;28;20534;-75
2022/08/12 12:08:40;;;;;;;5.25;2.53;;;;;;;24.44;43.30;92494.97;4999366;28;20049;-75
2022/08/12 12:11:05;;;;;;;5.15;2.78;;;;;;;24.62;42.43;92487.84;5015488;28;20370;-75
2022/08/12 12:13:31;;;;;;;6.72;3.30;;;;;;;24.66;42.06;92480.59;5004846;28;20049;-75
2022/08/12 12:15:57;;;;;;;5.63;3.03;;;;;;;24.73;42.82;92477.19;5031518;28;20068;-75
2022/08/12 12:18:30;;;;;;;7.70;3.03;;;;;;;24.76;43.20;92478.34;5026744;28;20033;-75
2022/08/12 12:20:59;;;;;;;7.47;3.05;;;;;;;24.93;42.59;92470.41;5004200;28;20099;-75
2022/08/12 12:23:25;;;;;;;7.68;2.67;;;;;;;24.37;43.12;92462.81;5046511;28;20090;-75
2022/08/12 12:25:52;;;;;;;8.00;2.97;;;;;;;24.07;44.24;92463.75;5041868;28;20021;-75
2022/08/12 12:28:18;;;;;;;5.25;2.88;;;;;;;23.88;43.17;92470.88;5049153;28;20044;-74
2022/08/12 12:30:43;;;;;;;9.98;3.35;;;;;;;23.80;44.35;92465.81;5051734;28;20487;-75
2022/08/12 12:33:10;;;;;;;6.25;3.00;;;;;;;24.14;44.96;92465.72;5050466;28;20037;-75
2022/08/12 12:35:36;;;;;;;6.60;2.72;;;;;;;24.51;44.84;92462.94;5033143;28;20739;-75
2022/08/12 12:38:21;;;;;;;4.45;2.80;;;;;;;24.58;42.29;92460.28;5050412;28;20025;-76
2022/08/12 12:40:47;;;;;;;5.22;3.08;;;;;;;24.82;43.64;92455.44;5051040;28;20037;-75
2022/08/12 12:43:14;;;;;;;5.40;3.20;;;;;;;24.82;43.02;92456.22;5049627;28;20056;-75
2022/08/12 12:45:42;;;;;;;5.70;3.20;;;;;;;24.46;42.64;92461.34;5049405;28;20033;-75
2022/08/12 12:48:13;;;;;;;5.43;3.03;;;;;;;24.01;43.07;92463.34;5003704;28;20029;-75
2022/08/12 12:50:44;;;;;;;7.82;3.33;;;;;;;23.73;44.51;92463.06;5050455;28;20041;-76
2022/08/12 12:53:11;;;;;;;7.90;3.28;;;;;;;23.63;45.24;92464.53;5050870;28;20040;-75
2022/08/12 12:55:37;;;;;;;5.00;2.70;;;;;;;24.16;45.35;92458.88;5033318;28;20147;-76
2022/08/12 12:58:10;;;;;;;5.80;3.30;;;;;;;24.29;43.63;92462.75;5032790;28;20670;-76
2022/08/12 13:00:41;;;;;;;6.05;3.33;;;;;;;24.43;42.92;92454.09;5015457;28;20235;-76
2022/08/12 13:03:07;;;;;;;7.30;3.20;;;;;;;24.47;43.45;92451.41;5052254;28;20043;-76
2022/08/12 13:05:35;;;;;;;8.82;3.33;;;;;;;24.25;44.30;92456.63;5034332;28;20025;-76
2022/08/12 13:08:17;;;;;;;9.15;3.30;;;;;;;23.98;44.67;92452.59;5052179;28;20029;-75
2022/08/12 13:10:42;;;;;;;8.48;3.30;;;;;;;23.64;45.11;92450.00;5052425;28;20036;-75
2022/08/12 13:13:08;;;;;;;4.55;2.72;;;;;;;23.61;45.81;92456.88;5018872;28;20021;-76
2022/08/12 13:15:34;;;;;;;12.73;3.40;;;;;;;23.45;45.19;92451.00;5044325;28;20118;-75
2022/08/12 13:18:03;;;;;;;5.68;3.30;;;;;;;23.55;46.26;92446.88;5051569;28;20473;-75
2022/08/12 13:20:30;;;;;;;7.22;3.33;;;;;;;23.70;45.08;92445.88;5033828;28;20040;-75